createdAt,value
2019-03-09T00:00:01.754Z,0
2019-03-09T00:01:01.782Z,0
2019-03-09T00:02:01.536Z,0
2019-03-09T00:03:02.071Z,0
2019-03-09T00:04:01.660Z,0
2019-03-09T00:05:02.035Z,0
2019-03-09T00:06:02.133Z,0
2019-03-09T00:07:02.156Z,0
2019-03-09T00:08:02.186Z,0
2019-03-09T00:09:01.402Z,0
2019-03-09T00:10:01.947Z,0
2019-03-09T00:11:02.514Z,0
2019-03-09T00:12:02.006Z,0
2019-03-09T00:13:02.428Z,0
2019-03-09T00:14:02.037Z,0
2019-03-09T00:15:02.309Z,0
2019-03-09T00:16:01.804Z,0
2019-03-09T00:17:02.349Z,0
2019-03-09T00:18:01.841Z,0
2019-03-09T00:19:02.122Z,0
2019-03-09T00:20:02.146Z,0
2019-03-09T00:21:02.737Z,0
2019-03-09T00:22:02.131Z,0
2019-03-09T00:23:02.466Z,0
2019-03-09T00:24:01.965Z,0
2019-03-09T00:25:01.991Z,0
2019-03-09T00:26:04.144Z,0
2019-03-09T00:27:02.557Z,0
2019-03-09T00:28:02.571Z,0
2019-03-09T00:29:02.314Z,0
2019-03-09T00:30:02.890Z,0
2019-03-09T00:31:04.100Z,0
2019-03-09T00:32:01.865Z,0
2019-03-09T00:33:02.657Z,0
2019-03-09T00:34:02.155Z,0
2019-03-09T00:35:02.058Z,0
2019-03-09T00:36:02.464Z,0
2019-03-09T00:37:02.216Z,0
2019-03-09T00:38:02.978Z,0
2019-03-09T00:39:02.654Z,0
2019-03-09T00:40:03.083Z,0
2019-03-09T00:41:02.553Z,0
2019-03-09T00:42:03.114Z,0
2019-03-09T00:43:02.867Z,0
2019-03-09T00:44:02.352Z,0
2019-03-09T00:45:02.504Z,0
2019-03-09T00:46:02.651Z,0
2019-03-09T00:47:03.301Z,0
2019-03-09T00:48:02.688Z,0
2019-03-09T00:49:02.995Z,0
2019-03-09T00:50:02.479Z,0
2019-03-09T00:51:02.773Z,0
2019-03-09T00:52:02.519Z,0
2019-03-09T00:53:02.545Z,0
2019-03-09T00:54:02.806Z,0
2019-03-09T00:55:03.663Z,0
2019-03-09T00:56:02.608Z,0
2019-03-09T00:57:02.623Z,0
2019-03-09T00:58:02.877Z,0
2019-03-09T00:59:03.163Z,0
2019-03-09T01:00:02.652Z,0
2019-03-09T01:01:02.676Z,0
2019-03-09T01:02:03.212Z,0
2019-03-09T01:03:02.975Z,0
2019-03-09T01:04:02.745Z,0
2019-03-09T01:05:03.011Z,0
2019-03-09T01:06:03.030Z,0
2019-03-09T01:07:03.049Z,0
2019-03-09T01:08:03.069Z,0
2019-03-09T01:09:03.083Z,0
2019-03-09T01:10:03.104Z,0
2019-03-09T01:11:03.126Z,0
2019-03-09T01:12:03.167Z,0
2019-03-09T01:13:03.427Z,0
2019-03-09T01:14:03.181Z,0
2019-03-09T01:15:03.199Z,0
2019-03-09T01:16:02.958Z,0
2019-03-09T01:17:03.240Z,0
2019-03-09T01:18:03.268Z,0
2019-03-09T01:19:03.281Z,0
2019-03-09T01:20:03.305Z,0
2019-03-09T01:21:03.063Z,0
2019-03-09T01:22:03.074Z,0
2019-03-09T01:23:03.373Z,0
2019-03-09T01:24:03.384Z,0
2019-03-09T01:25:03.396Z,0
2019-03-09T01:26:03.682Z,0
2019-03-09T01:27:03.180Z,0
2019-03-09T01:28:02.929Z,0
2019-03-09T01:29:03.737Z,0
2019-03-09T01:30:03.289Z,0
2019-03-09T01:31:04.063Z,0
2019-03-09T01:32:03.807Z,0
2019-03-09T01:33:03.822Z,0
2019-03-09T01:34:03.329Z,0
2019-03-09T01:35:04.114Z,0
2019-03-09T01:36:03.089Z,0
2019-03-09T01:37:03.098Z,0
2019-03-09T01:38:03.120Z,0
2019-03-09T01:39:03.664Z,0
2019-03-09T01:40:03.954Z,0
2019-03-09T01:41:03.961Z,0
2019-03-09T01:42:03.734Z,0
2019-03-09T01:43:03.571Z,0
2019-03-09T01:44:03.505Z,0
2019-03-09T01:45:03.516Z,0
2019-03-09T01:46:04.062Z,0
2019-03-09T01:47:04.079Z,0
2019-03-09T01:48:04.113Z,0
2019-03-09T01:49:03.600Z,0
2019-03-09T01:50:03.920Z,0
2019-03-09T01:51:03.896Z,0
2019-03-09T01:52:04.179Z,0
2019-03-09T01:53:03.936Z,0
2019-03-09T01:54:03.721Z,0
2019-03-09T01:55:04.233Z,0
2019-03-09T01:56:04.279Z,0
2019-03-09T01:57:04.017Z,0
2019-03-09T01:58:04.332Z,0
2019-03-09T01:59:03.818Z,0
2019-03-09T02:00:03.825Z,0
2019-03-09T02:01:03.562Z,0
2019-03-09T02:02:04.646Z,0
2019-03-09T02:03:03.867Z,0
2019-03-09T02:04:04.414Z,0
2019-03-09T02:05:04.178Z,0
2019-03-09T02:06:03.657Z,0
2019-03-09T02:07:03.952Z,0
2019-03-09T02:08:04.225Z,0
2019-03-09T02:09:04.508Z,0
2019-03-09T02:10:04.313Z,0
2019-03-09T02:11:04.547Z,0
2019-03-09T02:12:04.557Z,0
2019-03-09T02:13:04.341Z,0
2019-03-09T02:14:03.817Z,0
2019-03-09T02:15:04.628Z,0
2019-03-09T02:16:03.868Z,0
2019-03-09T02:17:04.663Z,0
2019-03-09T02:18:04.678Z,0
2019-03-09T02:19:04.165Z,0
2019-03-09T02:20:04.187Z,0
2019-03-09T02:21:04.476Z,0
2019-03-09T02:22:04.495Z,0
2019-03-09T02:23:04.542Z,0
2019-03-09T02:24:04.530Z,0
2019-03-09T02:25:04.980Z,0
2019-03-09T02:26:05.089Z,0
2019-03-09T02:27:05.122Z,0
2019-03-09T02:28:04.347Z,0
2019-03-09T02:29:06.092Z,0
2019-03-09T02:30:04.787Z,0
2019-03-09T02:31:04.983Z,0
2019-03-09T02:32:04.443Z,0
2019-03-09T02:33:04.199Z,0
2019-03-09T02:34:04.492Z,0
2019-03-09T02:35:05.255Z,0
2019-03-09T02:36:04.526Z,0
2019-03-09T02:37:04.804Z,0
2019-03-09T02:38:04.839Z,0
2019-03-09T02:39:04.843Z,0
2019-03-09T02:40:04.885Z,0
2019-03-09T02:41:05.136Z,0
2019-03-09T02:42:04.908Z,0
2019-03-09T02:43:04.649Z,0
2019-03-09T02:44:04.672Z,0
2019-03-09T02:45:04.879Z,0
2019-03-09T02:46:04.437Z,0
2019-03-09T02:47:05.575Z,0
2019-03-09T02:48:05.040Z,0
2019-03-09T02:49:05.310Z,0
2019-03-09T02:50:05.405Z,0
2019-03-09T02:51:05.076Z,0
2019-03-09T02:52:04.817Z,0
2019-03-09T02:53:04.832Z,0
2019-03-09T02:54:05.152Z,0
2019-03-09T02:55:05.445Z,0
2019-03-09T02:56:05.173Z,0
2019-03-09T02:57:05.462Z,0
2019-03-09T02:58:05.465Z,0
2019-03-09T02:59:05.479Z,0
2019-03-09T03:00:06.233Z,0
2019-03-09T03:01:05.506Z,0
2019-03-09T03:02:05.540Z,0
2019-03-09T03:03:05.554Z,0
2019-03-09T03:04:05.326Z,0
2019-03-09T03:05:05.088Z,0
2019-03-09T03:06:05.352Z,0
2019-03-09T03:07:05.163Z,0
2019-03-09T03:08:05.928Z,0
2019-03-09T03:09:05.433Z,0
2019-03-09T03:10:05.445Z,0
2019-03-09T03:11:05.466Z,0
2019-03-09T03:12:05.770Z,0
2019-03-09T03:13:05.762Z,0
2019-03-09T03:14:05.803Z,0
2019-03-09T03:15:05.585Z,0
2019-03-09T03:16:05.554Z,0
2019-03-09T03:17:06.099Z,0
2019-03-09T03:18:05.598Z,0
2019-03-09T03:19:05.338Z,0
2019-03-09T03:20:05.357Z,0
2019-03-09T03:21:05.506Z,0
2019-03-09T03:22:05.659Z,0
2019-03-09T03:23:05.936Z,0
2019-03-09T03:24:05.965Z,0
2019-03-09T03:25:05.716Z,0
2019-03-09T03:26:05.983Z,0
2019-03-09T03:27:06.012Z,0
2019-03-09T03:28:05.508Z,0
2019-03-09T03:29:05.811Z,0
2019-03-09T03:30:05.862Z,0
2019-03-09T03:31:05.953Z,0
2019-03-09T03:32:05.425Z,0
2019-03-09T03:33:06.351Z,0
2019-03-09T03:34:05.965Z,0
2019-03-09T03:35:05.668Z,0
2019-03-09T03:36:06.202Z,0
2019-03-09T03:37:06.203Z,0
2019-03-09T03:38:06.499Z,0
2019-03-09T03:39:05.478Z,0
2019-03-09T03:40:06.004Z,0
2019-03-09T03:41:05.501Z,0
2019-03-09T03:42:06.064Z,0
2019-03-09T03:43:06.317Z,0
2019-03-09T03:44:06.092Z,0
2019-03-09T03:45:06.123Z,0
2019-03-09T03:46:06.430Z,0
2019-03-09T03:47:06.685Z,0
2019-03-09T03:48:06.433Z,0
2019-03-09T03:49:08.268Z,0
2019-03-09T03:50:06.514Z,0
2019-03-09T03:51:05.962Z,0
2019-03-09T03:52:06.515Z,0
2019-03-09T03:53:06.278Z,0
2019-03-09T03:54:06.364Z,0
2019-03-09T03:55:06.306Z,0
2019-03-09T03:56:06.298Z,0
2019-03-09T03:57:06.589Z,0
2019-03-09T03:58:06.073Z,0
2019-03-09T03:59:06.092Z,0
2019-03-09T04:00:06.919Z,0
2019-03-09T04:01:06.669Z,0
2019-03-09T04:02:06.414Z,0
2019-03-09T04:03:06.710Z,0
2019-03-09T04:04:06.208Z,0
2019-03-09T04:05:06.223Z,0
2019-03-09T04:06:06.486Z,0
2019-03-09T04:07:06.625Z,0
2019-03-09T04:08:06.554Z,0
2019-03-09T04:09:06.295Z,0
2019-03-09T04:10:06.311Z,0
2019-03-09T04:11:08.591Z,0
2019-03-09T04:12:06.603Z,0
2019-03-09T04:13:06.618Z,0
2019-03-09T04:14:06.445Z,0
2019-03-09T04:15:06.925Z,0
2019-03-09T04:16:07.062Z,0
2019-03-09T04:17:06.970Z,0
2019-03-09T04:18:06.456Z,0
2019-03-09T04:19:07.003Z,0
2019-03-09T04:20:06.536Z,0
2019-03-09T04:21:08.525Z,0
2019-03-09T04:22:06.542Z,0
2019-03-09T04:23:06.852Z,0
2019-03-09T04:24:06.308Z,0
2019-03-09T04:25:07.167Z,0
2019-03-09T04:26:06.863Z,0
2019-03-09T04:27:06.655Z,0
2019-03-09T04:28:07.166Z,0
2019-03-09T04:29:07.455Z,0
2019-03-09T04:30:07.072Z,0
2019-03-09T04:31:07.238Z,0
2019-03-09T04:32:07.050Z,0
2019-03-09T04:33:06.994Z,0
2019-03-09T04:34:07.014Z,0
2019-03-09T04:35:07.045Z,0
2019-03-09T04:36:07.094Z,0
2019-03-09T04:37:07.622Z,0
2019-03-09T04:38:07.103Z,0
2019-03-09T04:39:07.366Z,0
2019-03-09T04:40:06.867Z,0
2019-03-09T04:41:06.896Z,0
2019-03-09T04:42:06.673Z,0
2019-03-09T04:43:07.176Z,0
2019-03-09T04:44:07.196Z,0
2019-03-09T04:45:07.554Z,0
2019-03-09T04:46:06.974Z,0
2019-03-09T04:47:07.263Z,0
2019-03-09T04:48:07.547Z,0
2019-03-09T04:49:07.041Z,0
2019-03-09T04:50:07.076Z,0
2019-03-09T04:51:07.329Z,0
2019-03-09T04:52:07.088Z,0
2019-03-09T04:53:07.369Z,0
2019-03-09T04:54:07.384Z,0
2019-03-09T04:55:07.406Z,0
2019-03-09T04:56:07.165Z,0
2019-03-09T04:57:07.184Z,0
2019-03-09T04:58:07.469Z,0
2019-03-09T04:59:07.237Z,0
2019-03-09T05:00:07.772Z,0
2019-03-09T05:01:07.000Z,0
2019-03-09T05:02:07.032Z,0
2019-03-09T05:03:07.300Z,0
2019-03-09T05:04:07.573Z,0
2019-03-09T05:05:07.646Z,0
2019-03-09T05:06:07.357Z,0
2019-03-09T05:07:07.109Z,0
2019-03-09T05:08:07.927Z,0
2019-03-09T05:09:07.449Z,0
2019-03-09T05:10:08.219Z,0
2019-03-09T05:11:08.236Z,0
2019-03-09T05:12:07.726Z,0
2019-03-09T05:13:07.217Z,0
2019-03-09T05:14:07.507Z,0
2019-03-09T05:15:07.529Z,0
2019-03-09T05:16:07.809Z,0
2019-03-09T05:17:07.571Z,0
2019-03-09T05:18:07.838Z,0
2019-03-09T05:19:07.601Z,0
2019-03-09T05:20:07.875Z,0
2019-03-09T05:21:08.168Z,0
2019-03-09T05:22:07.912Z,0
2019-03-09T05:23:07.416Z,0
2019-03-09T05:24:07.959Z,0
2019-03-09T05:25:08.251Z,0
2019-03-09T05:26:08.010Z,0
2019-03-09T05:27:08.013Z,0
2019-03-09T05:28:08.032Z,0
2019-03-09T05:29:08.051Z,0
2019-03-09T05:30:08.077Z,0
2019-03-09T05:31:08.118Z,0
2019-03-09T05:32:09.299Z,0
2019-03-09T05:33:08.123Z,0
2019-03-09T05:34:07.878Z,0
2019-03-09T05:35:08.164Z,0
2019-03-09T05:36:07.935Z,0
2019-03-09T05:37:07.687Z,0
2019-03-09T05:38:08.509Z,0
2019-03-09T05:39:08.506Z,0
2019-03-09T05:40:08.529Z,0
2019-03-09T05:41:08.054Z,0
2019-03-09T05:42:08.036Z,0
2019-03-09T05:43:07.792Z,0
2019-03-09T05:44:08.330Z,0
2019-03-09T05:45:08.876Z,0
2019-03-09T05:46:08.367Z,0
2019-03-09T05:47:08.396Z,0
2019-03-09T05:48:08.680Z,0
2019-03-09T05:49:08.426Z,0
2019-03-09T05:50:09.405Z,0
2019-03-09T05:51:08.734Z,0
2019-03-09T05:52:08.488Z,0
2019-03-09T05:53:08.818Z,0
2019-03-09T05:54:08.791Z,0
2019-03-09T05:55:08.554Z,0
2019-03-09T05:56:10.376Z,0
2019-03-09T05:57:08.583Z,0
2019-03-09T05:58:09.128Z,0
2019-03-09T05:59:08.652Z,0
2019-03-09T06:00:08.117Z,0
2019-03-09T06:01:08.411Z,0
2019-03-09T06:02:08.934Z,0
2019-03-09T06:03:08.453Z,0
2019-03-09T06:04:09.769Z,0
2019-03-09T06:05:08.469Z,0
2019-03-09T06:06:09.022Z,0
2019-03-09T06:07:08.502Z,0
2019-03-09T06:08:08.268Z,0
2019-03-09T06:09:09.089Z,0
2019-03-09T06:10:08.828Z,0
2019-03-09T06:11:08.845Z,0
2019-03-09T06:12:08.868Z,0
2019-03-09T06:13:08.356Z,0
2019-03-09T06:14:09.170Z,0
2019-03-09T06:15:08.661Z,0
2019-03-09T06:16:08.679Z,0
2019-03-09T06:17:08.958Z,0
2019-03-09T06:18:11.104Z,0
2019-03-09T06:19:09.000Z,0
2019-03-09T06:20:09.305Z,0
2019-03-09T06:21:09.037Z,0
2019-03-09T06:22:09.058Z,0
2019-03-09T06:23:09.339Z,0
2019-03-09T06:24:09.107Z,0
2019-03-09T06:25:09.658Z,5
2019-03-09T06:26:09.449Z,5
2019-03-09T06:27:09.150Z,5
2019-03-09T06:28:09.694Z,5
2019-03-09T06:29:08.924Z,10
2019-03-09T06:30:09.475Z,5
2019-03-09T06:31:08.964Z,5
2019-03-09T06:32:08.977Z,5
2019-03-09T06:33:09.265Z,5
2019-03-09T06:34:09.544Z,5
2019-03-09T06:35:09.537Z,5
2019-03-09T06:36:09.318Z,10
2019-03-09T06:37:09.617Z,5
2019-03-09T06:38:09.099Z,5
2019-03-09T06:39:09.640Z,10
2019-03-09T06:40:09.537Z,10
2019-03-09T06:41:12.218Z,10
2019-03-09T06:42:09.174Z,10
2019-03-09T06:43:09.182Z,10
2019-03-09T06:44:09.228Z,10
2019-03-09T06:45:09.279Z,10
2019-03-09T06:46:09.816Z,10
2019-03-09T06:47:09.262Z,10
2019-03-09T06:48:09.808Z,10
2019-03-09T06:49:09.032Z,10
2019-03-09T06:50:09.590Z,15
2019-03-09T06:51:09.074Z,10
2019-03-09T06:52:09.355Z,15
2019-03-09T06:53:09.838Z,15
2019-03-09T06:54:09.663Z,15
2019-03-09T06:55:09.680Z,15
2019-03-09T06:56:09.192Z,15
2019-03-09T06:57:18.640Z,20
2019-03-09T06:58:10.302Z,20
2019-03-09T06:59:10.034Z,20
2019-03-09T07:00:09.777Z,20
2019-03-09T07:01:09.530Z,20
2019-03-09T07:02:09.809Z,20
2019-03-09T07:03:09.836Z,20
2019-03-09T07:04:09.608Z,25
2019-03-09T07:05:09.603Z,25
2019-03-09T07:06:09.363Z,20
2019-03-09T07:07:09.642Z,20
2019-03-09T07:08:09.655Z,20
2019-03-09T07:09:09.993Z,25
2019-03-09T07:10:10.250Z,25
2019-03-09T07:11:09.730Z,25
2019-03-09T07:12:09.735Z,25
2019-03-09T07:13:10.013Z,30
2019-03-09T07:14:10.297Z,35
2019-03-09T07:15:10.065Z,35
2019-03-09T07:16:09.809Z,35
2019-03-09T07:17:10.090Z,30
2019-03-09T07:18:10.122Z,35
2019-03-09T07:19:09.868Z,35
2019-03-09T07:20:20.014Z,30
2019-03-09T07:21:10.182Z,30
2019-03-09T07:22:09.939Z,35
2019-03-09T07:23:10.745Z,30
2019-03-09T07:24:09.971Z,30
2019-03-09T07:25:10.253Z,30
2019-03-09T07:26:10.262Z,30
2019-03-09T07:27:10.015Z,30
2019-03-09T07:28:10.300Z,30
2019-03-09T07:29:10.591Z,30
2019-03-09T07:30:10.605Z,35
2019-03-09T07:31:10.364Z,35
2019-03-09T07:32:10.129Z,30
2019-03-09T07:33:10.927Z,35
2019-03-09T07:34:10.408Z,30
2019-03-09T07:35:10.705Z,30
2019-03-09T07:36:10.186Z,35
2019-03-09T07:37:10.231Z,35
2019-03-09T07:38:10.232Z,35
2019-03-09T07:39:10.510Z,30
2019-03-09T07:40:10.547Z,25
2019-03-09T07:41:10.812Z,25
2019-03-09T07:42:10.307Z,30
2019-03-09T07:43:11.131Z,30
2019-03-09T07:44:10.612Z,30
2019-03-09T07:45:10.361Z,30
2019-03-09T07:46:10.657Z,30
2019-03-09T07:47:10.669Z,30
2019-03-09T07:48:10.962Z,30
2019-03-09T07:49:10.728Z,30
2019-03-09T07:50:10.719Z,30
2019-03-09T07:51:10.485Z,30
2019-03-09T07:52:10.487Z,35
2019-03-09T07:53:10.558Z,35
2019-03-09T07:54:10.793Z,35
2019-03-09T07:55:11.074Z,35
2019-03-09T07:56:10.848Z,40
2019-03-09T07:57:10.596Z,35
2019-03-09T07:58:11.146Z,45
2019-03-09T07:59:10.894Z,45
2019-03-09T08:00:11.174Z,45
2019-03-09T08:01:11.190Z,40
2019-03-09T08:02:11.217Z,45
2019-03-09T08:03:11.237Z,35
2019-03-09T08:04:10.784Z,45
2019-03-09T08:05:11.005Z,50
2019-03-09T08:06:11.550Z,50
2019-03-09T08:07:11.311Z,50
2019-03-09T08:08:10.548Z,35
2019-03-09T08:09:11.610Z,45
2019-03-09T08:10:10.846Z,45
2019-03-09T08:11:11.388Z,35
2019-03-09T08:12:11.400Z,45
2019-03-09T08:13:11.169Z,35
2019-03-09T08:14:11.194Z,35
2019-03-09T08:15:11.204Z,40
2019-03-09T08:16:10.955Z,50
2019-03-09T08:17:11.510Z,55
2019-03-09T08:18:11.009Z,55
2019-03-09T08:19:11.552Z,65
2019-03-09T08:20:11.320Z,60
2019-03-09T08:21:11.366Z,60
2019-03-09T08:22:11.612Z,65
2019-03-09T08:23:11.883Z,60
2019-03-09T08:24:11.152Z,60
2019-03-09T08:25:11.436Z,55
2019-03-09T08:26:11.187Z,55
2019-03-09T08:27:11.458Z,60
2019-03-09T08:28:11.207Z,60
2019-03-09T08:29:11.258Z,65
2019-03-09T08:30:12.212Z,65
2019-03-09T08:31:11.530Z,60
2019-03-09T08:32:11.545Z,60
2019-03-09T08:33:11.349Z,60
2019-03-09T08:34:11.621Z,60
2019-03-09T08:35:11.617Z,60
2019-03-09T08:36:11.699Z,55
2019-03-09T08:37:11.715Z,55
2019-03-09T08:38:11.491Z,50
2019-03-09T08:39:11.756Z,55
2019-03-09T08:40:11.963Z,55
2019-03-09T08:41:11.983Z,50
2019-03-09T08:42:11.775Z,55
2019-03-09T08:43:11.790Z,55
2019-03-09T08:44:12.141Z,55
2019-03-09T08:45:11.334Z,40
2019-03-09T08:46:11.603Z,35
2019-03-09T08:47:11.333Z,40
2019-03-09T08:48:11.952Z,50
2019-03-09T08:49:11.664Z,50
2019-03-09T08:50:11.371Z,55
2019-03-09T08:51:12.250Z,60
2019-03-09T08:52:11.985Z,55
2019-03-09T08:53:11.517Z,50
2019-03-09T08:54:12.077Z,60
2019-03-09T08:55:12.036Z,65
2019-03-09T08:56:11.804Z,65
2019-03-09T08:57:12.412Z,70
2019-03-09T08:58:12.325Z,70
2019-03-09T08:59:11.916Z,55
2019-03-09T09:00:12.471Z,25
2019-03-09T09:01:12.132Z,30
2019-03-09T09:02:11.949Z,30
2019-03-09T09:03:12.148Z,20
2019-03-09T09:04:11.897Z,30
2019-03-09T09:05:12.177Z,35
2019-03-09T09:06:11.945Z,45
2019-03-09T09:07:11.991Z,40
2019-03-09T09:08:13.327Z,50
2019-03-09T09:09:12.561Z,55
2019-03-09T09:10:12.054Z,55
2019-03-09T09:11:12.034Z,55
2019-03-09T09:12:12.323Z,55
2019-03-09T09:13:12.375Z,55
2019-03-09T09:14:12.614Z,55
2019-03-09T09:15:14.639Z,55
2019-03-09T09:16:12.406Z,55
2019-03-09T09:17:12.423Z,55
2019-03-09T09:18:12.455Z,60
2019-03-09T09:19:12.196Z,55
2019-03-09T09:20:12.213Z,55
2019-03-09T09:21:12.251Z,50
2019-03-09T09:22:13.976Z,50
2019-03-09T09:23:12.276Z,50
2019-03-09T09:24:12.562Z,50
2019-03-09T09:25:12.587Z,50
2019-03-09T09:26:12.598Z,50
2019-03-09T09:27:12.354Z,55
2019-03-09T09:28:12.631Z,55
2019-03-09T09:29:12.655Z,60
2019-03-09T09:30:12.930Z,60
2019-03-09T09:31:12.476Z,60
2019-03-09T09:32:13.237Z,55
2019-03-09T09:33:12.729Z,55
2019-03-09T09:34:12.492Z,55
2019-03-09T09:35:12.532Z,60
2019-03-09T09:36:13.062Z,65
2019-03-09T09:37:12.559Z,65
2019-03-09T09:38:13.101Z,60
2019-03-09T09:39:12.846Z,55
2019-03-09T09:40:13.215Z,65
2019-03-09T09:41:12.885Z,70
2019-03-09T09:42:13.166Z,70
2019-03-09T09:43:12.948Z,65
2019-03-09T09:44:12.980Z,65
2019-03-09T09:45:12.715Z,60
2019-03-09T09:46:13.251Z,55
2019-03-09T09:47:13.004Z,55
2019-03-09T09:48:12.765Z,70
2019-03-09T09:49:13.571Z,55
2019-03-09T09:50:12.816Z,50
2019-03-09T09:51:13.084Z,45
2019-03-09T09:52:12.835Z,40
2019-03-09T09:53:12.657Z,35
2019-03-09T09:54:13.407Z,45
2019-03-09T09:55:12.902Z,40
2019-03-09T09:56:12.930Z,60
2019-03-09T09:57:13.203Z,50
2019-03-09T09:58:13.225Z,40
2019-03-09T09:59:14.470Z,60
2019-03-09T10:00:13.275Z,65
2019-03-09T10:01:13.286Z,80
2019-03-09T10:02:13.567Z,80
2019-03-09T10:03:13.589Z,75
2019-03-09T10:04:14.562Z,75
2019-03-09T10:05:13.648Z,75
2019-03-09T10:06:15.482Z,75
2019-03-09T10:07:13.403Z,75
2019-03-09T10:08:12.897Z,85
2019-03-09T10:09:13.436Z,80
2019-03-09T10:10:13.459Z,75
2019-03-09T10:11:13.479Z,75
2019-03-09T10:12:13.501Z,80
2019-03-09T10:13:13.265Z,75
2019-03-09T10:14:13.275Z,75
2019-03-09T10:15:13.295Z,80
2019-03-09T10:16:13.059Z,75
2019-03-09T10:17:13.862Z,75
2019-03-09T10:18:13.354Z,75
2019-03-09T10:19:15.527Z,75
2019-03-09T10:20:13.971Z,80
2019-03-09T10:21:13.718Z,80
2019-03-09T10:22:13.698Z,80
2019-03-09T10:23:14.050Z,80
2019-03-09T10:24:13.736Z,80
2019-03-09T10:25:13.238Z,80
2019-03-09T10:26:13.839Z,75
2019-03-09T10:27:13.805Z,75
2019-03-09T10:28:14.346Z,75
2019-03-09T10:29:13.575Z,75
2019-03-09T10:30:14.141Z,75
2019-03-09T10:31:13.624Z,70
2019-03-09T10:32:14.162Z,70
2019-03-09T10:33:13.423Z,70
2019-03-09T10:34:13.676Z,70
2019-03-09T10:35:14.216Z,70
2019-03-09T10:36:13.717Z,70
2019-03-09T10:37:13.733Z,70
2019-03-09T10:38:14.277Z,65
2019-03-09T10:39:14.098Z,70
2019-03-09T10:40:14.325Z,70
2019-03-09T10:41:14.081Z,70
2019-03-09T10:42:14.106Z,65
2019-03-09T10:43:14.115Z,60
2019-03-09T10:44:13.924Z,55
2019-03-09T10:45:13.903Z,55
2019-03-09T10:46:13.921Z,60
2019-03-09T10:47:13.676Z,60
2019-03-09T10:48:14.228Z,65
2019-03-09T10:49:14.259Z,65
2019-03-09T10:50:14.266Z,65
2019-03-09T10:51:14.548Z,65
2019-03-09T10:52:14.035Z,70
2019-03-09T10:53:14.576Z,70
2019-03-09T10:54:14.338Z,70
2019-03-09T10:55:14.116Z,70
2019-03-09T10:56:14.114Z,70
2019-03-09T10:57:14.399Z,65
2019-03-09T10:58:14.164Z,65
2019-03-09T10:59:14.175Z,65
2019-03-09T11:00:14.736Z,70
2019-03-09T11:01:14.741Z,75
2019-03-09T11:02:14.232Z,75
2019-03-09T11:03:14.524Z,75
2019-03-09T11:04:14.803Z,75
2019-03-09T11:05:14.064Z,70
2019-03-09T11:06:14.624Z,70
2019-03-09T11:07:14.345Z,75
2019-03-09T11:08:14.358Z,75
2019-03-09T11:09:14.376Z,70
2019-03-09T11:10:14.923Z,75
2019-03-09T11:11:14.949Z,75
2019-03-09T11:12:14.701Z,75
2019-03-09T11:13:14.450Z,75
2019-03-09T11:14:14.215Z,75
2019-03-09T11:15:14.755Z,80
2019-03-09T11:16:14.513Z,80
2019-03-09T11:17:14.528Z,75
2019-03-09T11:18:14.561Z,80
2019-03-09T11:19:14.572Z,85
2019-03-09T11:20:14.592Z,85
2019-03-09T11:21:14.880Z,85
2019-03-09T11:22:14.631Z,90
2019-03-09T11:23:15.180Z,85
2019-03-09T11:24:14.945Z,85
2019-03-09T11:25:14.695Z,80
2019-03-09T11:26:14.980Z,80
2019-03-09T11:27:15.001Z,80
2019-03-09T11:28:14.750Z,85
2019-03-09T11:29:15.564Z,95
2019-03-09T11:30:14.800Z,85
2019-03-09T11:31:14.815Z,85
2019-03-09T11:32:15.090Z,85
2019-03-09T11:33:15.396Z,90
2019-03-09T11:34:14.871Z,90
2019-03-09T11:35:15.423Z,90
2019-03-09T11:36:14.668Z,85
2019-03-09T11:37:14.938Z,85
2019-03-09T11:38:14.968Z,80
2019-03-09T11:39:15.303Z,80
2019-03-09T11:40:14.999Z,75
2019-03-09T11:41:25.823Z,75
2019-03-09T11:42:14.808Z,75
2019-03-09T11:43:15.327Z,75
2019-03-09T11:44:14.815Z,75
2019-03-09T11:45:14.840Z,75
2019-03-09T11:46:15.379Z,75
2019-03-09T11:47:15.690Z,75
2019-03-09T11:48:15.158Z,75
2019-03-09T11:49:14.911Z,75
2019-03-09T11:50:15.196Z,80
2019-03-09T11:51:15.211Z,80
2019-03-09T11:52:26.289Z,75
2019-03-09T11:53:15.527Z,75
2019-03-09T11:54:15.018Z,75
2019-03-09T11:55:15.038Z,75
2019-03-09T11:56:15.592Z,75
2019-03-09T11:57:15.862Z,70
2019-03-09T11:58:15.622Z,70
2019-03-09T11:59:15.377Z,75
2019-03-09T12:00:15.165Z,70
2019-03-09T12:01:15.429Z,70
2019-03-09T12:02:15.711Z,75
2019-03-09T12:03:15.466Z,75
2019-03-09T12:04:16.010Z,80
2019-03-09T12:05:16.041Z,75
2019-03-09T12:06:16.059Z,75
2019-03-09T12:07:15.800Z,75
2019-03-09T12:08:15.556Z,75
2019-03-09T12:09:15.843Z,75
2019-03-09T12:10:15.603Z,70
2019-03-09T12:11:15.893Z,70
2019-03-09T12:12:15.922Z,70
2019-03-09T12:13:15.958Z,70
2019-03-09T12:14:15.946Z,80
2019-03-09T12:15:15.961Z,80
2019-03-09T12:16:16.246Z,85
2019-03-09T12:17:21.440Z,90
2019-03-09T12:18:15.618Z,85
2019-03-09T12:19:16.044Z,85
2019-03-09T12:20:16.593Z,85
2019-03-09T12:21:16.349Z,85
2019-03-09T12:22:16.108Z,85
2019-03-09T12:23:15.606Z,85
2019-03-09T12:24:26.767Z,90
2019-03-09T12:25:15.924Z,90
2019-03-09T12:26:16.190Z,90
2019-03-09T12:27:16.216Z,90
2019-03-09T12:28:15.971Z,80
2019-03-09T12:29:16.528Z,80
2019-03-09T12:30:16.334Z,70
2019-03-09T12:31:16.038Z,70
2019-03-09T12:32:16.309Z,70
2019-03-09T12:33:16.333Z,75
2019-03-09T12:34:15.828Z,75
2019-03-09T12:35:16.110Z,65
2019-03-09T12:36:16.392Z,60
2019-03-09T12:37:16.678Z,65
2019-03-09T12:38:16.713Z,70
2019-03-09T12:39:16.460Z,75
2019-03-09T12:40:16.227Z,70
2019-03-09T12:41:16.235Z,65
2019-03-09T12:42:16.544Z,65
2019-03-09T12:43:16.293Z,65
2019-03-09T12:44:16.822Z,70
2019-03-09T12:45:16.078Z,75
2019-03-09T12:46:16.328Z,80
2019-03-09T12:47:16.362Z,80
2019-03-09T12:48:16.643Z,90
2019-03-09T12:49:16.398Z,100
2019-03-09T12:50:16.937Z,105
2019-03-09T12:51:16.442Z,95
2019-03-09T12:52:16.982Z,100
2019-03-09T12:53:18.566Z,100
2019-03-09T12:54:16.771Z,80
2019-03-09T12:55:16.260Z,80
2019-03-09T12:56:16.536Z,80
2019-03-09T12:57:16.565Z,85
2019-03-09T12:58:17.108Z,85
2019-03-09T12:59:16.348Z,80
2019-03-09T13:00:17.180Z,65
2019-03-09T13:01:17.171Z,55
2019-03-09T13:02:16.737Z,60
2019-03-09T13:03:17.214Z,80
2019-03-09T13:04:16.967Z,85
2019-03-09T13:05:16.989Z,90
2019-03-09T13:06:17.006Z,90
2019-03-09T13:07:17.031Z,95
2019-03-09T13:08:16.809Z,95
2019-03-09T13:09:17.083Z,105
2019-03-09T13:10:17.089Z,95
2019-03-09T13:11:17.123Z,75
2019-03-09T13:12:17.816Z,80
2019-03-09T13:13:16.898Z,75
2019-03-09T13:14:16.648Z,80
2019-03-09T13:15:17.761Z,75
2019-03-09T13:16:17.207Z,80
2019-03-09T13:17:17.493Z,75
2019-03-09T13:18:17.259Z,60
2019-03-09T13:19:17.280Z,60
2019-03-09T13:20:17.555Z,65
2019-03-09T13:21:17.048Z,85
2019-03-09T13:22:16.853Z,95
2019-03-09T13:23:17.628Z,60
2019-03-09T13:24:17.111Z,45
2019-03-09T13:25:17.400Z,55
2019-03-09T13:26:17.420Z,50
2019-03-09T13:27:17.182Z,45
2019-03-09T13:28:17.741Z,60
2019-03-09T13:29:17.477Z,55
2019-03-09T13:30:17.496Z,50
2019-03-09T13:31:17.781Z,50
2019-03-09T13:32:17.274Z,60
2019-03-09T13:33:17.600Z,75
2019-03-09T13:34:17.589Z,80
2019-03-09T13:35:17.608Z,85
2019-03-09T13:36:17.880Z,75
2019-03-09T13:37:17.641Z,75
2019-03-09T13:38:17.405Z,55
2019-03-09T13:39:17.685Z,40
2019-03-09T13:40:17.703Z,30
2019-03-09T13:41:17.206Z,20
2019-03-09T13:42:17.761Z,20
2019-03-09T13:43:17.759Z,20
2019-03-09T13:44:18.052Z,15
2019-03-09T13:45:17.292Z,20
2019-03-09T13:46:17.825Z,20
2019-03-09T13:47:17.855Z,30
2019-03-09T13:48:17.875Z,40
2019-03-09T13:49:17.888Z,50
2019-03-09T13:50:17.995Z,60
2019-03-09T13:51:18.242Z,85
2019-03-09T13:52:17.692Z,85
2019-03-09T13:53:17.714Z,70
2019-03-09T13:54:17.731Z,75
2019-03-09T13:55:18.023Z,105
2019-03-09T13:56:18.033Z,95
2019-03-09T13:57:17.789Z,60
2019-03-09T13:58:17.585Z,50
2019-03-09T13:59:18.103Z,65
2019-03-09T14:00:17.607Z,70
2019-03-09T14:01:18.408Z,80
2019-03-09T14:02:17.888Z,80
2019-03-09T14:03:18.194Z,55
2019-03-09T14:04:18.201Z,40
2019-03-09T14:05:17.717Z,30
2019-03-09T14:06:17.979Z,25
2019-03-09T14:07:18.011Z,20
2019-03-09T14:08:18.018Z,15
2019-03-09T14:09:18.564Z,5
2019-03-09T14:10:18.087Z,5
2019-03-09T14:11:18.596Z,5
2019-03-09T14:12:18.095Z,10
2019-03-09T14:13:18.118Z,10
2019-03-09T14:14:19.375Z,10
2019-03-09T14:15:18.429Z,5
2019-03-09T14:16:18.443Z,5
2019-03-09T14:17:18.494Z,0
2019-03-09T14:18:18.483Z,0
2019-03-09T14:19:17.981Z,5
2019-03-09T14:20:18.821Z,5
2019-03-09T14:21:18.580Z,5
2019-03-09T14:22:18.565Z,5
2019-03-09T14:23:18.859Z,5
2019-03-09T14:24:18.099Z,5
2019-03-09T14:25:18.904Z,5
2019-03-09T14:26:18.165Z,5
2019-03-09T14:27:19.664Z,5
2019-03-09T14:28:18.732Z,5
2019-03-09T14:29:18.446Z,0
2019-03-09T14:30:18.744Z,5